createdAt,value
2022-09-18T00:00:56.433Z,99500.66
2022-09-18T00:05:59.093Z,99505.22
2022-09-18T00:11:04.354Z,99497.38
2022-09-18T00:16:09.598Z,99506.25
2022-09-18T00:21:13.495Z,99494.56
2022-09-18T00:26:18.308Z,99508.81
2022-09-18T00:31:25.557Z,99511.44
2022-09-18T00:36:29.392Z,99513.56
2022-09-18T00:41:33.368Z,99515.06
2022-09-18T00:46:37.676Z,99512.28
2022-09-18T00:51:40.759Z,99515.13
2022-09-18T00:56:43.979Z,99511.28
2022-09-18T01:01:48.089Z,99516.66
2022-09-18T01:06:53.445Z,99521.72
2022-09-18T01:11:59.161Z,99518.66
2022-09-18T01:17:06.287Z,99523.38
2022-09-18T01:22:15.940Z,99537.09
2022-09-18T01:27:23.231Z,99542.66
2022-09-18T01:32:29.092Z,99548.88
2022-09-18T01:37:33.934Z,99551.19
2022-09-18T01:42:37.623Z,99571.72
2022-09-18T01:47:43.119Z,99564.75
2022-09-18T01:52:47.843Z,99570.44
2022-09-18T01:57:52.690Z,99561.00
2022-09-18T02:02:59.597Z,99563.13
2022-09-18T02:08:09.210Z,99574.88
2022-09-18T02:13:12.554Z,99579.72
2022-09-18T02:18:19.466Z,99586.13
2022-09-18T02:23:22.363Z,99591.78
2022-09-18T02:28:25.341Z,99589.38
2022-09-18T02:33:31.019Z,99596.19
2022-09-18T02:38:36.846Z,99596.91
2022-09-18T02:43:43.212Z,99614.75
2022-09-18T02:48:50.231Z,99607.16
2022-09-18T02:53:57.464Z,99623.75
2022-09-18T02:59:03.617Z,99616.56
2022-09-18T03:04:12.166Z,99625.91
2022-09-18T03:09:34.818Z,99632.28
2022-09-18T03:14:37.575Z,99640.09
2022-09-18T03:19:44.527Z,99646.03
2022-09-18T03:24:47.211Z,99642.06
2022-09-18T03:29:51.856Z,99638.25
2022-09-18T03:34:59.320Z,99654.09
2022-09-18T03:40:04.103Z,99651.28
2022-09-18T03:45:08.278Z,99656.09
2022-09-18T03:50:12.589Z,99667.13
2022-09-18T03:55:15.900Z,99670.25
2022-09-18T04:00:37.213Z,99678.31
2022-09-18T04:05:48.894Z,99671.22
2022-09-18T04:11:26.672Z,99675.03
2022-09-18T04:16:29.767Z,99677.72
2022-09-18T04:21:33.903Z,99678.84
2022-09-18T04:26:36.758Z,99682.69
2022-09-18T04:31:40.193Z,99691.88
2022-09-18T04:36:49.005Z,99694.97
2022-09-18T04:41:52.185Z,99697.09
2022-09-18T04:46:56.001Z,99696.50
2022-09-18T04:52:00.313Z,99692.72
2022-09-18T04:57:03.932Z,99698.63
2022-09-18T05:02:06.739Z,99704.28
2022-09-18T05:07:12.297Z,99706.38
2022-09-18T05:12:15.124Z,99707.38
2022-09-18T05:17:18.065Z,99709.38
2022-09-18T05:22:40.786Z,99707.94
2022-09-18T05:27:54.435Z,99713.56
2022-09-18T05:32:59.329Z,99722.63
2022-09-18T05:38:05.460Z,99727.28
2022-09-18T05:43:08.498Z,99735.34
2022-09-18T05:48:13.202Z,99742.97
2022-09-18T05:53:18.462Z,99746.38
2022-09-18T05:58:29.651Z,99751.91
2022-09-18T06:03:32.669Z,99750.06
2022-09-18T06:08:38.176Z,99740.56
2022-09-18T06:13:41.178Z,99740.47
2022-09-18T06:18:43.856Z,99743.09
2022-09-18T06:23:47.895Z,99726.84
2022-09-18T06:29:00.125Z,99739.69
2022-09-18T06:34:07.732Z,99735.81
2022-09-18T06:39:11.793Z,99744.03
2022-09-18T06:44:14.683Z,99752.53
2022-09-18T06:49:24.500Z,99756.81
2022-09-18T06:54:28.528Z,99758.50
2022-09-18T06:59:31.284Z,99762.78
2022-09-18T07:04:35.104Z,99765.19
2022-09-18T07:09:39.157Z,99763.09
2022-09-18T07:14:51.642Z,99762.56
2022-09-18T07:19:55.479Z,99768.78
2022-09-18T07:25:05.025Z,99767.56
2022-09-18T07:30:08.784Z,99767.28
2022-09-18T07:35:11.703Z,99756.88
2022-09-18T07:40:16.229Z,99756.13
2022-09-18T07:45:40.502Z,99763.34
2022-09-18T07:50:43.232Z,99759.56
2022-09-18T07:55:48.015Z,99757.13
2022-09-18T08:00:51.299Z,99744.88
2022-09-18T08:05:55.795Z,99751.81
2022-09-18T08:11:00.793Z,99765.53
2022-09-18T08:16:21.711Z,99767.06
2022-09-18T08:21:43.255Z,99764.97
2022-09-18T08:26:49.903Z,99761.44
2022-09-18T08:31:52.813Z,99762.84
2022-09-18T08:36:58.204Z,99764.88
2022-09-18T08:42:30.165Z,99761.06
2022-09-18T08:47:36.660Z,99761.25
2022-09-18T08:52:43.490Z,99753.75
2022-09-18T08:58:04.650Z,99748.50
2022-09-18T09:03:20.253Z,99756.56
2022-09-18T09:08:38.706Z,99751.47
2022-09-18T09:14:10.587Z,99750.19
2022-09-18T09:19:26.614Z,99744.41
2022-09-18T09:24:32.487Z,99738.75
2022-09-18T09:29:43.422Z,99726.88
2022-09-18T09:35:22.679Z,99725.75
2022-09-18T09:40:54.629Z,99726.06
2022-09-18T09:46:01.154Z,99708.56
2022-09-18T09:51:06.589Z,99710.84
2022-09-18T09:56:13.104Z,99704.09
2022-09-18T10:01:19.542Z,99709.34
2022-09-18T10:06:32.084Z,99703.22
2022-09-18T10:11:35.116Z,99706.66
2022-09-18T10:16:41.737Z,99704.81
2022-09-18T10:21:46.476Z,99708.22
2022-09-18T10:26:50.923Z,99706.69
2022-09-18T10:31:56.846Z,99709.25
2022-09-18T10:37:01.770Z,99696.78
2022-09-18T10:42:05.761Z,99698.22
2022-09-18T10:47:12.450Z,99704.03
2022-09-18T10:52:27.058Z,99704.03
2022-09-18T10:57:31.271Z,99697.66
2022-09-18T11:02:41.369Z,99687.50
2022-09-18T11:07:48.443Z,99684.66
2022-09-18T11:12:55.711Z,99690.91
2022-09-18T11:18:08.673Z,99694.56
2022-09-18T11:23:16.775Z,99703.47
2022-09-18T11:28:24.049Z,99687.50
2022-09-18T11:33:29.735Z,99684.53
2022-09-18T11:38:35.044Z,99690.31
2022-09-18T11:43:38.613Z,99686.78
2022-09-18T11:48:45.390Z,99671.94
2022-09-18T11:53:51.286Z,99666.97
2022-09-18T11:58:56.354Z,99671.38
2022-09-18T12:04:04.661Z,99664.69
2022-09-18T12:09:10.675Z,99653.94
2022-09-18T12:14:17.044Z,99637.81
2022-09-18T12:19:33.912Z,99628.59
2022-09-18T12:24:36.958Z,99636.56
2022-09-18T12:30:13.354Z,99633.97
2022-09-18T12:35:21.082Z,99643.91
2022-09-18T12:40:33.996Z,99634.16
2022-09-18T12:46:04.853Z,99648.44
2022-09-18T12:51:18.010Z,99644.22
2022-09-18T12:56:30.206Z,99647.31
2022-09-18T13:01:34.320Z,99658.63
2022-09-18T13:06:42.491Z,99648.59
2022-09-18T13:11:47.223Z,99677.13
2022-09-18T13:16:52.294Z,99686.19
2022-09-18T13:21:56.375Z,99698.91
2022-09-18T13:26:59.065Z,99686.16
2022-09-18T13:32:02.452Z,99690.94
2022-09-18T13:37:07.358Z,99678.06
2022-09-18T13:42:10.109Z,99671.13
2022-09-18T13:47:14.035Z,99673.50
2022-09-18T13:52:42.807Z,99673.66
2022-09-18T13:57:45.577Z,99654.41
2022-09-18T14:02:48.459Z,99637.44
2022-09-18T14:08:14.246Z,99629.53
2022-09-18T14:13:31.629Z,99619.09
2022-09-18T14:18:36.756Z,99628.13
2022-09-18T14:24:05.377Z,99624.28
2022-09-18T14:29:11.175Z,99634.22
2022-09-18T14:34:16.823Z,99623.16
2022-09-18T14:39:25.103Z,99611.72
2022-09-18T14:44:28.335Z,99604.66
2022-09-18T14:49:33.996Z,99594.19
2022-09-18T14:54:41.003Z,99600.28
2022-09-18T14:59:46.420Z,99613.09
2022-09-18T15:04:49.218Z,99618.47
2022-09-18T15:09:55.279Z,99613.94
2022-09-18T15:14:59.075Z,99603.38
2022-09-18T15:20:02.964Z,99601.09
2022-09-18T15:25:12.419Z,99611.00
2022-09-18T15:30:16.321Z,99614.66
2022-09-18T15:35:20.822Z,99604.19
2022-09-18T15:40:28.352Z,99609.41
2022-09-18T15:45:31.803Z,99605.31
2022-09-18T15:50:39.154Z,99605.44
2022-09-18T15:56:11.773Z,99621.53
2022-09-18T16:01:27.201Z,99612.66
2022-09-18T16:06:32.328Z,99613.75
2022-09-18T16:11:44.614Z,99624.22
2022-09-18T16:16:47.266Z,99618.88
2022-09-18T16:21:49.937Z,99618.16
2022-09-18T16:26:54.084Z,99624.22
2022-09-18T16:31:57.509Z,99622.53
2022-09-18T16:37:00.217Z,99620.84
2022-09-18T16:42:08.022Z,99622.41
2022-09-18T16:47:12.551Z,99620.69
2022-09-18T16:52:15.275Z,99618.19
2022-09-18T16:57:21.694Z,99619.47
2022-09-18T17:02:26.219Z,99617.78
2022-09-18T17:07:29.929Z,99609.75
2022-09-18T17:12:34.290Z,99603.28
2022-09-18T17:17:37.010Z,99612.19
2022-09-18T17:22:39.698Z,99617.91
2022-09-18T17:27:44.070Z,99623.13
2022-09-18T17:32:48.029Z,99621.44
2022-09-18T17:37:51.735Z,99609.28
2022-09-18T17:42:56.608Z,99620.72
2022-09-18T17:47:59.468Z,99623.25
2022-09-18T17:53:02.472Z,99618.19
2022-09-18T17:58:06.730Z,99613.63
2022-09-18T18:03:09.506Z,99622.13
2022-09-18T18:08:12.168Z,99616.31
2022-09-18T18:13:17.924Z,99621.28
2022-09-18T18:18:20.761Z,99631.59
2022-09-18T18:23:23.593Z,99621.53
2022-09-18T18:28:30.288Z,99626.91
2022-09-18T18:33:33.457Z,99626.91
2022-09-18T18:38:36.365Z,99617.44
2022-09-18T18:43:41.016Z,99624.06
2022-09-18T18:48:44.368Z,99634.13
2022-09-18T18:53:47.168Z,99624.09
2022-09-18T18:58:55.985Z,99624.22
2022-09-18T19:04:00.367Z,99623.66
2022-09-18T19:09:05.722Z,99632.41
2022-09-18T19:14:11.695Z,99632.00
2022-09-18T19:19:15.410Z,99627.88
2022-09-18T19:24:19.112Z,99634.81
2022-09-18T19:29:23.246Z,99633.13
2022-09-18T19:34:26.026Z,99634.53
2022-09-18T19:39:28.871Z,99639.06
2022-09-18T19:44:35.065Z,99629.00
2022-09-18T19:49:38.129Z,99627.59
2022-09-18T19:54:40.940Z,99626.63
2022-09-18T19:59:44.950Z,99616.97
2022-09-18T20:04:47.738Z,99623.09
2022-09-18T20:09:51.003Z,99617.56
2022-09-18T20:14:56.878Z,99606.94
2022-09-18T20:19:59.729Z,99608.66
2022-09-18T20:25:02.427Z,99604.09
2022-09-18T20:30:07.700Z,99598.13
2022-09-18T20:35:10.893Z,99593.34
2022-09-18T20:40:14.136Z,99587.81
2022-09-18T20:45:18.563Z,99592.91
2022-09-18T20:50:25.595Z,99579.91
2022-09-18T20:55:28.371Z,99581.13
2022-09-18T21:00:32.464Z,99575.91
2022-09-18T21:05:35.772Z,99588.66
2022-09-18T21:10:46.583Z,99583.97
2022-09-18T21:15:50.667Z,99580.28
2022-09-18T21:21:01.976Z,99592.91
2022-09-18T21:26:14.497Z,99579.28
2022-09-18T21:31:21.752Z,99570.94
2022-09-18T21:36:25.559Z,99571.94
2022-09-18T21:41:28.263Z,99573.22
2022-09-18T21:46:34.310Z,99574.91
2022-09-18T21:51:37.619Z,99568.09
2022-09-18T21:56:40.294Z,99574.91
2022-09-18T22:01:44.366Z,99572.22
2022-09-18T22:06:47.518Z,99569.16
2022-09-18T22:11:50.889Z,99552.00
2022-09-18T22:16:56.326Z,99565.56
2022-09-18T22:21:59.028Z,99563.00
2022-09-18T22:27:08.317Z,99563.78
2022-09-18T22:32:12.607Z,99553.88
2022-09-18T22:37:15.298Z,99544.09
2022-09-18T22:42:18.010Z,99546.66
2022-09-18T22:47:21.986Z,99539.25
2022-09-18T22:52:24.760Z,99536.88
2022-09-18T22:57:27.508Z,99541.69
2022-09-18T23:02:32.089Z,99541.31
2022-09-18T23:07:38.746Z,99543.59
2022-09-18T23:12:41.507Z,99548.97
2022-09-18T23:17:46.057Z,99539.66
2022-09-18T23:22:48.722Z,99538.09
2022-09-18T23:27:53.452Z,99549.47
2022-09-18T23:32:57.517Z,99547.06
2022-09-18T23:38:00.198Z,99545.81
2022-09-18T23:43:03.036Z,99543.88
2022-09-18T23:48:07.052Z,99540.75
2022-09-18T23:53:09.726Z,99547.41
2022-09-18T23:58:12.438Z,99547.97
